Time;durP1;ratioP1;P1;durP2;ratioP2;P2;SDS_P1;SDS_P2;PMS_P1;PMS_P2;Temp;Humidity;BMP_temperature;BMP_pressure;BME280_temperature;BME280_humidity;BME280_pressure;Samples;Min_cycle;Max_cycle;Signal;HPM_P1;HPM_P2
2021/12/06 00:04:40;;;;;;;15.88;7.43;;;7.50;99.00;;;;;;10480904;28;20093;-67
2021/12/06 00:09:41;;;;;;;14.07;7.38;;;7.60;99.00;;;;;;10489390;28;20037;-67
2021/12/06 00:14:43;;;;;;;15.75;7.38;;;7.50;99.00;;;;;;10490209;28;20024;-68
2021/12/06 00:19:44;;;;;;;12.60;6.43;;;7.50;99.00;;;;;;10490826;28;20387;-68
2021/12/06 00:24:45;;;;;;;16.05;7.45;;;7.50;99.00;;;;;;10478462;28;20024;-65
2021/12/06 00:29:47;;;;;;;14.63;7.60;;;7.50;99.00;;;;;;10490607;28;20680;-65
2021/12/06 00:34:48;;;;;;;15.27;6.90;;;7.50;99.00;;;;;;10478372;28;20036;-65
2021/12/06 00:39:52;;;;;;;14.52;7.95;;;7.50;99.20;;;;;;10487804;28;20389;-64
2021/12/06 00:44:53;;;;;;;15.07;7.05;;;7.50;99.00;;;;;;10489378;28;20028;-65
2021/12/06 00:49:55;;;;;;;16.02;7.60;;;7.50;99.00;;;;;;10484435;28;20094;-65
2021/12/06 00:54:55;;;;;;;15.88;7.18;;;7.50;98.90;;;;;;10490398;28;20032;-66
2021/12/06 00:59:56;;;;;;;14.45;7.03;;;7.50;98.90;;;;;;10489046;28;20035;-67
2021/12/06 01:04:57;;;;;;;14.43;7.03;;;7.50;98.90;;;;;;10477150;28;20053;-67
2021/12/06 01:09:58;;;;;;;16.13;8.05;;;7.40;98.90;;;;;;10488759;28;20464;-67
2021/12/06 01:14:58;;;;;;;15.60;7.68;;;7.40;98.90;;;;;;10489005;28;20025;-66
2021/12/06 01:20:00;;;;;;;16.25;7.78;;;7.40;98.90;;;;;;10488586;28;20464;-66
2021/12/06 01:25:05;;;;;;;14.93;7.10;;;7.40;98.90;;;;;;10488421;28;20075;-67
2021/12/06 01:40:40;;;;;;;15.27;7.63;;;7.40;98.80;;;;;;10484339;28;20044;-67
2021/12/06 01:45:41;;;;;;;17.38;7.35;;;7.60;98.90;;;;;;10481330;28;20486;-67
2021/12/06 01:50:42;;;;;;;15.68;8.40;;;7.40;98.80;;;;;;10487234;28;20098;-67
2021/12/06 01:55:43;;;;;;;16.42;8.00;;;7.40;98.80;;;;;;10487129;28;20017;-65
2021/12/06 02:00:48;;;;;;;16.17;7.60;;;7.40;98.80;;;;;;10486623;28;20124;-67
2021/12/06 02:05:49;;;;;;;14.20;7.03;;;7.40;98.80;;;;;;10468376;28;20467;-67
2021/12/06 02:10:53;;;;;;;16.90;7.45;;;7.60;98.80;;;;;;10486047;28;20039;-66
2021/12/06 02:15:55;;;;;;;15.57;7.85;;;7.40;98.80;;;;;;10485795;28;20458;-67
2021/12/06 02:21:04;;;;;;;13.73;7.30;;;7.40;98.80;;;;;;10476301;28;20036;-67
2021/12/06 02:26:05;;;;;;;15.82;8.07;;;7.40;98.70;;;;;;10484891;28;20036;-66
2021/12/06 02:31:07;;;;;;;13.80;7.05;;;7.30;98.70;;;;;;10485879;28;20101;-66
2021/12/06 02:36:08;;;;;;;17.05;8.40;;;7.30;98.70;;;;;;10475018;28;20040;-66
2021/12/06 02:41:09;;;;;;;15.85;8.25;;;7.30;98.70;;;;;;10483080;28;20020;-66
2021/12/06 02:46:10;;;;;;;16.75;7.97;;;7.30;98.70;;;;;;10480453;28;20132;-67
2021/12/06 02:51:11;;;;;;;17.85;8.27;;;7.30;98.70;;;;;;10484809;28;20048;-62
2021/12/06 02:56:31;;;;;;;18.35;8.95;;;7.30;98.70;;;;;;10484793;28;20056;-67
2021/12/06 03:01:47;;;;;;;18.63;8.55;;;7.30;98.70;;;;;;10484039;28;20036;-67
2021/12/06 03:06:53;;;;;;;15.68;8.50;;;7.30;98.60;;;;;;10460377;28;20132;-67
2021/12/06 03:11:57;;;;;;;17.90;8.30;;;7.30;98.60;;;;;;10484542;28;20025;-66
2021/12/06 03:17:00;;;;;;;21.85;9.38;;;7.30;98.70;;;;;;10484712;28;20025;-67
2021/12/06 03:22:00;;;;;;;15.57;7.88;;;7.40;98.90;;;;;;10480121;28;20046;-67
2021/12/06 03:27:02;;;;;;;21.55;9.10;;;7.30;98.70;;;;;;10478912;28;20040;-66
2021/12/06 03:32:03;;;;;;;20.08;9.70;;;7.30;98.60;;;;;;10484608;28;20368;-68
2021/12/06 03:37:06;;;;;;;17.77;8.65;;;7.30;98.60;;;;;;10472980;28;20043;-68
2021/12/06 03:42:09;;;;;;;21.08;9.48;;;7.30;98.60;;;;;;10481339;28;20532;-66
2021/12/06 03:47:19;;;;;;;20.33;9.73;;;7.20;98.60;;;;;;10477160;28;20045;-65
2021/12/06 03:52:20;;;;;;;22.92;9.85;;;7.20;98.60;;;;;;10465924;28;20036;-66
2021/12/06 03:57:21;;;;;;;21.23;9.70;;;7.30;98.60;;;;;;10482798;28;20021;-65
2021/12/06 04:02:25;;;;;;;20.58;9.20;;;7.20;98.60;;;;;;10483393;28;20032;-67
2021/12/06 04:07:26;;;;;;;19.88;9.07;;;7.40;98.60;;;;;;10477829;28;20123;-64
2021/12/06 04:12:27;;;;;;;19.42;9.23;;;7.20;98.60;;;;;;10491060;28;20131;-66
2021/12/06 04:17:27;;;;;;;23.88;10.70;;;7.20;98.60;;;;;;10491033;28;20024;-67
2021/12/06 04:22:28;;;;;;;22.05;11.07;;;7.20;98.60;;;;;;10490191;28;20315;-65
2021/12/06 04:27:30;;;;;;;25.23;11.63;;;7.20;98.60;;;;;;10490309;28;20509;-63
2021/12/06 04:32:30;;;;;;;24.63;10.43;;;7.20;98.60;;;;;;10490035;28;20541;-67
2021/12/06 04:37:31;;;;;;;23.77;10.38;;;7.20;98.60;;;;;;10480691;28;20151;-67
2021/12/06 04:42:32;;;;;;;22.17;8.82;;;7.30;98.60;;;;;;10487667;28;20530;-66
2021/12/06 04:47:33;;;;;;;20.98;9.60;;;7.20;98.50;;;;;;10466597;28;20044;-67
2021/12/06 04:52:34;;;;;;;22.30;9.82;;;7.20;98.50;;;;;;10490478;28;20028;-66
2021/12/06 04:57:41;;;;;;;24.20;10.30;;;7.20;98.50;;;;;;10486771;28;20360;-66
2021/12/06 05:02:42;;;;;;;20.30;9.02;;;7.20;98.50;;;;;;10471949;28;20117;-64
2021/12/06 05:07:57;;;;;;;24.30;11.45;;;7.20;98.50;;;;;;10476895;28;20041;-64
2021/12/06 05:12:58;;;;;;;22.35;10.07;;;7.20;98.50;;;;;;10488809;28;20105;-67
2021/12/06 05:17:59;;;;;;;23.55;9.02;;;7.20;98.50;;;;;;10487429;28;20077;-65
2021/12/06 05:23:00;;;;;;;20.65;9.52;;;7.20;98.50;;;;;;10487539;28;20035;-67
2021/12/06 05:28:01;;;;;;;19.80;8.98;;;7.20;98.50;;;;;;10488001;28;20045;-66
2021/12/06 05:33:02;;;;;;;22.00;9.35;;;7.20;98.50;;;;;;10485407;28;20017;-64
2021/12/06 05:38:03;;;;;;;21.50;9.27;;;7.20;98.50;;;;;;10478870;28;20422;-61
2021/12/06 05:43:04;;;;;;;24.15;10.00;;;7.20;98.50;;;;;;10484852;28;20039;-66
2021/12/06 05:48:06;;;;;;;24.08;10.20;;;7.20;98.80;;;;;;10480605;28;20076;-67
2021/12/06 05:53:07;;;;;;;20.80;9.38;;;7.20;98.50;;;;;;10486767;28;20040;-67
2021/12/06 05:58:10;;;;;;;22.27;9.10;;;7.20;98.50;;;;;;10486320;28;20024;-65
2021/12/06 06:03:11;;;;;;;25.27;9.82;;;7.20;98.60;;;;;;10486372;28;20066;-67
2021/12/06 06:08:12;;;;;;;23.63;10.18;;;7.20;98.60;;;;;;10474457;28;20078;-64
2021/12/06 06:13:14;;;;;;;25.50;10.02;;;7.20;98.60;;;;;;10486103;28;20029;-65
2021/12/06 06:18:14;;;;;;;24.17;10.52;;;7.20;98.60;;;;;;10486129;28;20020;-65
2021/12/06 06:23:16;;;;;;;25.13;10.02;;;7.20;98.60;;;;;;10485561;28;20433;-67
2021/12/06 06:28:16;;;;;;;30.95;10.82;;;7.10;98.60;;;;;;10485469;28;20434;-68
2021/12/06 06:33:17;;;;;;;25.65;10.52;;;7.10;98.50;;;;;;10485211;28;20021;-65
2021/12/06 06:38:18;;;;;;;29.88;12.27;;;6.70;98.40;;;;;;10486120;28;20085;-67
2021/12/06 06:43:19;;;;;;;31.35;11.15;;;7.10;98.50;;;;;;10483028;28;20143;-66
2021/12/06 06:48:20;;;;;;;32.90;11.25;;;7.10;98.60;;;;;;10479044;28;20052;-65
2021/12/06 06:53:20;;;;;;;31.38;11.25;;;7.10;98.60;;;;;;10483308;28;20029;-67
2021/12/06 06:58:22;;;;;;;31.02;12.48;;;7.10;98.50;;;;;;10467538;28;20081;-68
2021/12/06 07:03:24;;;;;;;30.88;11.65;;;7.10;98.60;;;;;;10482278;28;20478;-63
2021/12/06 07:08:24;;;;;;;32.03;12.20;;;7.10;98.50;;;;;;10469823;28;20447;-73
2021/12/06 07:13:27;;;;;;;33.15;11.35;;;7.10;98.50;;;;;;10475093;28;20037;-70
2021/12/06 07:18:28;;;;;;;34.03;12.73;;;7.10;98.50;;;;;;10484839;28;20479;-70
2021/12/06 07:23:28;;;;;;;31.52;11.85;;;7.10;98.50;;;;;;10483780;28;20191;-71
2021/12/06 07:28:29;;;;;;;35.47;12.63;;;7.10;98.50;;;;;;10484289;28;20055;-68
2021/12/06 07:33:30;;;;;;;36.28;11.65;;;7.10;98.60;;;;;;10477929;28;20051;-70
2021/12/06 07:38:34;;;;;;;33.45;11.95;;;7.20;98.50;;;;;;10470375;28;20439;-67
2021/12/06 07:43:36;;;;;;;35.25;13.05;;;7.20;98.50;;;;;;10490626;28;20115;-67
2021/12/06 07:48:38;;;;;;;33.95;13.23;;;7.10;98.50;;;;;;10473206;28;20049;-67
2021/12/06 07:53:40;;;;;;;34.53;12.82;;;7.10;98.50;;;;;;10487218;28;20025;-64
2021/12/06 07:58:41;;;;;;;33.85;12.80;;;7.10;98.40;;;;;;10476304;28;20029;-68
2021/12/06 08:03:42;;;;;;;36.25;12.50;;;7.10;98.40;;;;;;10474600;28;20078;-68
2021/12/06 08:08:44;;;;;;;30.40;12.10;;;7.10;98.50;;;;;;10471671;28;20035;-69
2021/12/06 08:13:50;;;;;;;37.55;13.18;;;7.00;98.40;;;;;;10488802;28;20024;-79
2021/12/06 08:18:51;;;;;;;35.72;12.85;;;7.00;98.40;;;;;;10490400;28;20035;-68
2021/12/06 08:23:54;;;;;;;36.90;13.38;;;7.50;98.50;;;;;;10489110;28;20547;-65
2021/12/06 08:28:56;;;;;;;33.65;13.05;;;7.00;98.40;;;;;;10488001;28;20101;-72
2021/12/06 08:33:57;;;;;;;37.60;12.98;;;7.00;98.40;;;;;;10465290;28;20025;-68
2021/12/06 08:38:59;;;;;;;31.23;12.25;;;7.00;98.40;;;;;;10487473;28;20039;-68
2021/12/06 08:44:01;;;;;;;34.03;12.82;;;7.00;98.40;;;;;;10488232;28;20185;-65
2021/12/06 08:49:05;;;;;;;31.75;12.63;;;7.00;98.30;;;;;;10482190;28;20075;-77
2021/12/06 08:54:08;;;;;;;31.45;12.27;;;6.70;98.10;;;;;;10488712;28;20017;-75
2021/12/06 08:59:09;;;;;;;30.52;11.57;;;6.30;98.70;;;;;;10487374;28;20039;-67
2021/12/06 09:04:12;;;;;;;29.48;11.45;;;6.10;98.80;;;;;;10459447;28;20124;-67
2021/12/06 09:09:13;;;;;;;31.52;11.40;;;6.10;99.10;;;;;;10456045;28;20029;-67
2021/12/06 09:14:17;;;;;;;28.85;11.02;;;6.20;98.70;;;;;;10474820;28;20044;-68
2021/12/06 09:19:24;;;;;;;24.80;10.07;;;6.30;98.50;;;;;;10480888;28;20052;-62
2021/12/06 09:24:25;;;;;;;29.27;10.65;;;6.40;98.40;;;;;;10463748;28;20028;-67
2021/12/06 09:29:26;;;;;;;28.35;10.80;;;6.50;98.30;;;;;;10452254;28;20406;-66
2021/12/06 09:34:27;;;;;;;24.27;9.32;;;6.60;98.20;;;;;;10466361;28;20101;-71
2021/12/06 09:39:28;;;;;;;30.63;11.05;;;6.60;98.30;;;;;;10458418;28;20028;-63
2021/12/06 09:44:29;;;;;;;26.02;10.50;;;6.70;98.10;;;;;;10485810;28;20041;-67
2021/12/06 09:49:31;;;;;;;24.23;10.50;;;6.70;98.10;;;;;;10472513;28;20041;-72
2021/12/06 09:54:36;;;;;;;27.00;10.65;;;6.80;98.20;;;;;;10461590;28;20017;-68
2021/12/06 09:59:40;;;;;;;29.23;10.15;;;6.80;98.10;;;;;;10470638;28;20442;-69
2021/12/06 10:04:47;;;;;;;23.80;9.65;;;6.80;98.40;;;;;;10467283;28;20487;-71
2021/12/06 10:09:50;;;;;;;25.67;9.32;;;6.80;98.10;;;;;;10481721;28;20036;-69
2021/12/06 10:14:52;;;;;;;28.67;9.85;;;6.80;98.10;;;;;;10480323;28;20513;-70
2021/12/06 10:19:53;;;;;;;25.60;10.20;;;6.80;98.20;;;;;;10485158;28;21123;-65
2021/12/06 10:24:59;;;;;;;27.98;10.25;;;6.80;98.10;;;;;;10484811;28;20020;-67
2021/12/06 10:30:08;;;;;;;29.85;11.00;;;6.80;98.10;;;;;;10484653;28;20498;-71
2021/12/06 10:35:11;;;;;;;;;;;6.80;98.10;;;;;;10472648;28;20358;-70
2021/12/06 10:40:16;;;;;;;25.98;10.82;;;6.80;97.90;;;;;;10481706;28;19912;-68
2021/12/06 10:45:19;;;;;;;25.23;9.93;;;6.80;98.10;;;;;;10480269;28;20540;-71
2021/12/06 10:50:20;;;;;;;24.70;9.90;;;6.80;98.10;;;;;;10477911;28;20336;-68
2021/12/06 10:55:23;;;;;;;22.55;9.45;;;6.80;98.40;;;;;;10484447;28;20017;-71
2021/12/06 11:00:37;;;;;;;30.65;9.85;;;6.70;98.10;;;;;;10483150;28;20607;-66
2021/12/06 11:05:38;;;;;;;26.20;9.02;;;6.70;98.10;;;;;;10452376;28;20029;-70
2021/12/06 11:10:48;;;;;;;27.98;11.18;;;6.70;98.20;;;;;;10483567;28;20045;-68
2021/12/06 11:16:17;;;;;;;24.40;9.10;;;6.70;98.20;;;;;;10488175;28;20032;-69
2021/12/06 11:21:27;;;;;;;29.27;10.30;;;6.70;98.10;;;;;;10467261;28;20025;-65
2021/12/06 11:26:29;;;;;;;26.63;11.07;;;6.70;98.10;;;;;;10470156;28;20037;-64
2021/12/06 11:31:31;;;;;;;24.40;9.57;;;6.80;98.20;;;;;;10484832;28;20421;-71
2021/12/06 11:36:32;;;;;;;21.80;9.10;;;6.80;98.10;;;;;;10482640;28;20431;-69
2021/12/06 11:41:33;;;;;;;27.45;10.98;;;6.80;98.10;;;;;;10490101;28;20056;-68
2021/12/06 11:46:34;;;;;;;25.85;9.40;;;6.80;98.10;;;;;;10486832;28;20195;-68
2021/12/06 11:51:35;;;;;;;27.13;10.20;;;6.80;98.10;;;;;;10491542;28;20048;-63
2021/12/06 11:56:44;;;;;;;25.85;10.23;;;6.80;98.10;;;;;;10491623;28;20017;-74
2021/12/06 12:01:50;;;;;;;33.67;12.68;;;6.80;98.10;;;;;;10474321;28;20056;-64
2021/12/06 12:07:01;;;;;;;34.50;14.27;;;6.60;98.20;;;;;;10478826;28;20051;-70
2021/12/06 12:12:13;;;;;;;33.38;12.43;;;6.50;98.40;;;;;;10489162;28;20013;-60
2021/12/06 12:17:16;;;;;;;34.95;13.25;;;6.60;98.40;;;;;;10477091;28;20028;-66
2021/12/06 12:22:18;;;;;;;37.47;13.38;;;6.70;98.30;;;;;;10489833;28;20009;-66
2021/12/06 12:27:29;;;;;;;32.17;13.73;;;6.70;98.30;;;;;;10477144;28;20198;-66
2021/12/06 12:32:31;;;;;;;37.55;13.00;;;6.70;98.30;;;;;;10489778;28;20120;-71
2021/12/06 12:37:33;;;;;;;32.35;12.90;;;6.70;98.20;;;;;;10481985;28;20029;-68
2021/12/06 12:42:34;;;;;;;32.65;13.07;;;6.70;98.20;;;;;;10487371;28;20033;-67
2021/12/06 12:47:36;;;;;;;32.67;12.45;;;6.80;98.20;;;;;;10464596;28;20036;-67
2021/12/06 12:52:46;;;;;;;37.60;13.27;;;6.80;98.20;;;;;;10485652;28;20498;-65
2021/12/06 12:57:48;;;;;;;32.22;13.90;;;6.70;98.10;;;;;;10493370;28;20081;-62
2021/12/06 13:02:48;;;;;;;36.88;13.85;;;6.70;98.20;;;;;;10494350;28;20545;-63
2021/12/06 13:07:52;;;;;;;35.95;13.82;;;6.70;98.20;;;;;;10482440;28;20036;-69
2021/12/06 13:13:17;;;;;;;36.40;14.50;;;6.90;98.20;;;;;;10488118;28;20025;-64
2021/12/06 13:19:02;;;;;;;38.65;13.98;;;6.70;98.10;;;;;;10487952;28;20036;-70
2021/12/06 13:24:05;;;;;;;37.25;13.88;;;6.70;98.10;;;;;;10451399;28;20029;-67
2021/12/06 13:29:09;;;;;;;36.90;13.52;;;6.70;98.10;;;;;;10471750;28;20148;-67
2021/12/06 13:34:29;;;;;;;38.08;14.13;;;6.70;98.10;;;;;;10477131;28;20036;-69
2021/12/06 13:39:29;;;;;;;36.15;14.20;;;6.70;98.00;;;;;;10483447;28;20040;-64
2021/12/06 13:44:45;;;;;;;33.15;13.30;;;6.70;98.10;;;;;;10483328;28;20377;-70
2021/12/06 13:49:52;;;;;;;38.47;14.02;;;6.70;98.00;;;;;;10479567;28;20853;-69
2021/12/06 13:54:53;;;;;;;37.55;14.52;;;6.80;98.10;;;;;;10486307;28;20120;-65
2021/12/06 13:59:59;;;;;;;34.17;13.75;;;6.70;98.10;;;;;;10484904;28;20029;-71
2021/12/06 14:05:00;;;;;;;43.30;15.15;;;6.70;98.00;;;;;;10473159;28;20418;-68
2021/12/06 14:10:01;;;;;;;43.90;13.73;;;6.70;98.00;;;;;;10484077;28;20087;-70
2021/12/06 14:15:17;;;;;;;38.95;14.90;;;6.80;98.10;;;;;;10482479;28;20032;-67
2021/12/06 14:20:18;;;;;;;36.42;14.98;;;6.70;98.10;;;;;;10484023;28;20446;-66
2021/12/06 14:25:19;;;;;;;39.13;15.32;;;6.70;98.10;;;;;;10485153;28;20075;-67
2021/12/06 14:30:23;;;;;;;41.20;15.25;;;6.70;98.10;;;;;;10484492;28;20433;-71
2021/12/06 14:35:27;;;;;;;40.17;14.70;;;6.70;98.10;;;;;;10474108;28;20031;-71
2021/12/06 14:40:28;;;;;;;39.40;13.80;;;6.70;98.10;;;;;;10482541;28;20028;-71
2021/12/06 14:45:29;;;;;;;42.75;13.52;;;6.70;98.10;;;;;;10479730;28;20463;-67
2021/12/06 14:56:08;;;;;;;42.15;14.57;;;6.70;98.10;;;;;;10484983;28;20164;-67
2021/12/06 15:01:13;;;;;;;35.60;14.63;;;6.70;98.20;;;;;;10480896;28;20371;-64
2021/12/06 15:06:15;;;;;;;40.45;16.05;;;6.70;98.20;;;;;;10456172;28;20440;-65
2021/12/06 15:11:20;;;;;;;45.47;16.63;;;6.60;98.20;;;;;;10447527;28;20033;-67
2021/12/06 15:16:24;;;;;;;43.13;15.35;;;6.60;98.20;;;;;;10483385;28;20033;-66
2021/12/06 15:21:30;;;;;;;44.85;15.45;;;6.60;98.20;;;;;;10483072;28;20074;-61
2021/12/06 15:26:40;;;;;;;40.10;15.73;;;6.60;98.20;;;;;;10483057;28;20402;-65
2021/12/06 15:31:44;;;;;;;43.00;15.30;;;6.60;98.20;;;;;;10482871;28;20078;-67
2021/12/06 15:36:45;;;;;;;38.38;14.43;;;6.60;98.20;;;;;;10471387;28;20418;-66
2021/12/06 15:42:14;;;;;;;40.22;14.68;;;6.60;98.20;;;;;;10480303;28;20082;-68
2021/12/06 15:47:20;;;;;;;38.33;13.45;;;6.60;98.20;;;;;;10456068;28;20490;-67
2021/12/06 15:52:23;;;;;;;30.95;12.93;;;6.50;98.20;;;;;;10482168;28;20085;-71
2021/12/06 15:57:28;;;;;;;31.13;12.13;;;6.50;98.20;;;;;;10481595;28;20028;-67
2021/12/06 16:02:33;;;;;;;27.52;11.45;;;6.50;98.20;;;;;;10486560;28;20037;-64
2021/12/06 16:07:36;;;;;;;26.23;11.52;;;6.50;98.20;;;;;;10477115;28;20036;-66
2021/12/06 16:12:58;;;;;;;27.58;11.13;;;6.50;98.20;;;;;;10489409;28;20028;-67
2021/12/06 16:18:07;;;;;;;27.83;10.90;;;6.50;98.20;;;;;;10488411;28;20036;-69
2021/12/06 16:23:12;;;;;;;22.75;10.25;;;6.50;98.20;;;;;;10488572;28;20108;-69
2021/12/06 16:28:13;;;;;;;27.13;10.40;;;6.50;98.20;;;;;;10477664;28;20044;-64
2021/12/06 16:33:44;;;;;;;24.13;9.82;;;6.50;98.40;;;;;;10480831;28;20024;-65
2021/12/06 16:38:45;;;;;;;23.33;10.68;;;6.60;98.60;;;;;;10472330;28;20033;-66
2021/12/06 16:43:49;;;;;;;24.60;10.05;;;6.60;98.30;;;;;;10487568;28;20023;-65
2021/12/06 16:48:54;;;;;;;27.65;11.40;;;6.60;98.30;;;;;;10486413;28;20469;-63
2021/12/06 16:53:56;;;;;;;26.05;11.45;;;6.80;99.40;;;;;;10488290;28;20126;-65
2021/12/06 16:58:56;;;;;;;30.98;11.73;;;7.00;98.60;;;;;;10469901;28;20129;-70
2021/12/06 17:03:57;;;;;;;26.92;11.60;;;6.90;98.50;;;;;;10478360;28;20134;-64
2021/12/06 17:09:02;;;;;;;25.38;10.57;;;6.90;98.70;;;;;;10479452;28;20131;-64
2021/12/06 17:14:07;;;;;;;28.02;11.43;;;6.70;98.70;;;;;;10487273;28;20078;-67
2021/12/06 17:19:17;;;;;;;27.10;11.43;;;6.70;98.70;;;;;;10461131;28;20036;-67
2021/12/06 17:24:34;;;;;;;25.08;10.90;;;6.70;98.70;;;;;;10485213;28;20016;-67
2021/12/06 17:29:38;;;;;;;26.42;11.18;;;6.70;98.70;;;;;;10486112;28;20182;-67
2021/12/06 17:34:39;;;;;;;27.25;11.32;;;6.60;98.60;;;;;;10476506;28;20028;-64
2021/12/06 17:39:43;;;;;;;25.58;10.27;;;6.70;98.70;;;;;;10483904;28;20033;-64
2021/12/06 17:44:51;;;;;;;27.23;11.75;;;6.60;98.60;;;;;;10493664;28;20605;-66
2021/12/06 17:49:52;;;;;;;27.95;10.65;;;6.50;98.60;;;;;;10454013;28;20056;-67
2021/12/06 17:54:52;;;;;;;27.23;10.80;;;6.50;98.50;;;;;;10471578;28;20028;-64
2021/12/06 17:59:53;;;;;;;21.58;9.88;;;6.50;98.50;;;;;;10485832;28;20020;-63
2021/12/06 18:04:54;;;;;;;27.58;11.15;;;6.50;98.50;;;;;;10466868;28;20638;-66
2021/12/06 18:09:55;;;;;;;25.45;10.23;;;6.50;98.50;;;;;;10478596;28;20201;-73
2021/12/06 18:14:55;;;;;;;26.40;10.45;;;6.50;98.50;;;;;;10487611;28;20101;-68
2021/12/06 18:19:56;;;;;;;29.52;11.57;;;6.60;98.50;;;;;;10494575;28;20043;-67
2021/12/06 18:24:58;;;;;;;22.88;10.55;;;6.50;98.40;;;;;;10483851;28;20048;-69
2021/12/06 18:30:01;;;;;;;24.90;9.73;;;6.50;98.50;;;;;;10486019;28;20040;-69
2021/12/06 18:35:02;;;;;;;23.95;10.25;;;6.50;98.50;;;;;;10474064;28;20047;-73
2021/12/06 18:40:12;;;;;;;26.55;10.35;;;6.50;98.50;;;;;;10481488;28;20099;-69
2021/12/06 18:45:12;;;;;;;24.25;10.27;;;6.50;98.50;;;;;;10483592;28;20533;-71
2021/12/06 18:50:14;;;;;;;24.10;9.57;;;6.50;98.40;;;;;;10472359;28;20052;-71
2021/12/06 18:55:16;;;;;;;26.58;11.07;;;6.50;98.50;;;;;;10485670;28;20035;-68
2021/12/06 19:00:27;;;;;;;23.70;10.18;;;6.40;98.40;;;;;;10473474;28;20039;-66
2021/12/06 19:05:28;;;;;;;20.25;9.85;;;6.40;98.40;;;;;;10476282;28;20028;-70
2021/12/06 19:10:29;;;;;;;21.38;8.88;;;6.40;98.30;;;;;;10459523;28;20033;-67
2021/12/06 19:15:31;;;;;;;20.10;9.23;;;6.40;98.30;;;;;;10479497;28;20954;-70
2021/12/06 19:20:32;;;;;;;22.63;9.60;;;6.40;98.30;;;;;;10487383;28;20028;-62
2021/12/06 19:25:34;;;;;;;22.25;9.68;;;6.40;98.30;;;;;;10475030;28;20094;-69
2021/12/06 19:30:35;;;;;;;20.13;9.38;;;6.80;98.40;;;;;;10478454;28;20642;-70
2021/12/06 19:35:38;;;;;;;21.00;9.00;;;6.40;98.20;;;;;;10484029;28;20032;-64
2021/12/06 19:40:41;;;;;;;20.73;8.30;;;6.30;98.20;;;;;;10489984;28;20028;-67
2021/12/06 19:45:46;;;;;;;19.08;8.77;;;6.30;98.20;;;;;;10498061;28;20032;-69
2021/12/06 19:50:49;;;;;;;20.23;8.75;;;6.40;98.20;;;;;;10487253;28;20131;-63
2021/12/06 19:55:51;;;;;;;18.25;7.75;;;6.30;98.10;;;;;;10489740;28;20031;-68
2021/12/06 20:00:53;;;;;;;18.70;7.97;;;6.30;98.10;;;;;;10489694;28;20051;-62
2021/12/06 20:05:54;;;;;;;16.05;7.30;;;6.30;98.10;;;;;;10488876;28;20477;-73
2021/12/06 20:10:58;;;;;;;13.73;6.72;;;6.30;98.00;;;;;;10491333;28;20036;-73
2021/12/06 20:15:59;;;;;;;15.52;7.38;;;6.30;98.00;;;;;;10488139;28;20029;-69
2021/12/06 20:21:00;;;;;;;14.25;6.53;;;6.30;98.00;;;;;;10469331;28;20059;-64
2021/12/06 20:26:02;;;;;;;13.30;6.82;;;6.30;98.00;;;;;;10478712;28;20559;-72
2021/12/06 20:31:05;;;;;;;16.33;7.05;;;6.30;98.00;;;;;;10487620;28;20036;-65
2021/12/06 20:36:06;;;;;;;14.23;6.20;;;6.30;97.90;;;;;;10484696;28;20043;-69
2021/12/06 20:41:07;;;;;;;14.85;6.50;;;6.30;97.90;;;;;;10485461;28;20044;-68
2021/12/06 20:46:08;;;;;;;13.23;6.25;;;6.30;97.90;;;;;;10487283;28;20028;-69
2021/12/06 20:51:10;;;;;;;14.88;6.28;;;6.30;98.20;;;;;;10488481;28;20084;-66
2021/12/06 20:56:11;;;;;;;11.57;5.97;;;6.30;97.90;;;;;;10460262;28;20082;-68
2021/12/06 21:01:11;;;;;;;11.73;5.28;;;6.30;97.90;;;;;;10485072;28;20049;-64
2021/12/06 21:06:13;;;;;;;10.93;5.78;;;6.20;97.90;;;;;;10465189;28;20033;-74
2021/12/06 21:11:34;;;;;;;9.80;4.90;;;6.30;97.90;;;;;;10465640;28;20032;-73
2021/12/06 21:16:37;;;;;;;9.52;4.80;;;6.20;97.90;;;;;;10488931;28;20509;-73
2021/12/06 21:21:41;;;;;;;10.02;4.93;;;6.20;97.90;;;;;;10490608;28;20664;-69
2021/12/06 21:26:43;;;;;;;8.75;5.18;;;6.20;97.90;;;;;;10485111;28;20021;-73
2021/12/06 21:31:43;;;;;;;11.38;5.43;;;6.20;97.90;;;;;;10484642;28;20609;-70
2021/12/06 21:36:44;;;;;;;10.15;4.85;;;6.20;97.90;;;;;;10489197;28;20041;-73
2021/12/06 21:41:45;;;;;;;8.27;4.65;;;6.20;97.90;;;;;;10466316;28;20005;-71
2021/12/06 21:46:46;;;;;;;9.82;5.43;;;6.20;97.90;;;;;;10481384;28;20457;-73
2021/12/06 21:51:47;;;;;;;11.77;4.97;;;6.50;98.00;;;;;;10499228;28;20093;-69
2021/12/06 21:56:47;;;;;;;11.95;4.82;;;6.20;97.90;;;;;;10479870;28;20132;-71
2021/12/06 22:01:49;;;;;;;11.70;5.53;;;6.20;97.90;;;;;;10481760;28;20957;-70
2021/12/06 22:06:50;;;;;;;12.80;5.28;;;6.30;98.10;;;;;;10475047;28;20040;-71
2021/12/06 22:11:50;;;;;;;11.50;5.18;;;6.40;98.00;;;;;;10479992;28;20058;-70
2021/12/06 22:16:53;;;;;;;10.30;5.05;;;6.40;97.90;;;;;;10465222;28;20035;-72
2021/12/06 22:21:55;;;;;;;11.15;5.57;;;6.40;97.90;;;;;;10465809;28;20017;-69
2021/12/06 22:26:56;;;;;;;14.13;6.07;;;6.40;97.90;;;;;;10476533;28;20067;-69
2021/12/06 22:31:57;;;;;;;13.13;6.13;;;6.70;98.00;;;;;;10463316;28;20033;-72
2021/12/06 22:36:58;;;;;;;15.88;5.40;;;6.40;97.90;;;;;;10482476;28;20193;-72
2021/12/06 22:41:58;;;;;;;11.95;5.60;;;6.30;98.00;;;;;;10462552;28;20028;-71
2021/12/06 22:46:59;;;;;;;13.75;6.18;;;6.30;98.00;;;;;;10475380;28;20044;-72
2021/12/06 22:52:00;;;;;;;13.10;5.72;;;6.30;98.00;;;;;;10481051;28;20056;-71
2021/12/06 22:57:01;;;;;;;12.48;6.20;;;6.30;98.00;;;;;;10472996;28;20036;-73
2021/12/06 23:02:06;;;;;;;12.98;6.85;;;6.30;98.00;;;;;;10480464;28;20359;-73
2021/12/06 23:07:07;;;;;;;12.65;6.50;;;6.30;97.90;;;;;;10484159;28;20032;-73
2021/12/06 23:12:09;;;;;;;11.23;6.25;;;6.20;97.90;;;;;;10496032;28;20036;-72
2021/12/06 23:17:10;;;;;;;10.98;6.00;;;6.30;97.90;;;;;;10499329;28;20498;-72
2021/12/06 23:22:10;;;;;;;13.10;6.47;;;6.30;97.90;;;;;;10525106;28;20028;-71
2021/12/06 23:27:12;;;;;;;12.90;6.15;;;6.20;97.90;;;;;;10500816;28;20048;-72
2021/12/06 23:32:13;;;;;;;12.73;6.53;;;6.20;97.90;;;;;;10499510;28;20048;-72
2021/12/06 23:37:16;;;;;;;14.48;6.90;;;6.20;97.90;;;;;;10489777;28;20105;-69
2021/12/06 23:47:20;;;;;;;11.25;6.40;;;6.20;97.80;;;;;;10493478;28;20036;-71
2021/12/06 23:52:21;;;;;;;13.45;6.45;;;6.20;97.80;;;;;;10497294;28;20052;-72
2021/12/06 23:57:22;;;;;;;13.30;7.13;;;6.20;97.80;;;;;;10498528;28;20032;-72
